الصفحة الرئيسية
METAR-TAF:

METAR-TAF

مطار :

مطار الشارقة الدولي

الشارقة, الإمارات العربية المتحدة

دائرة عرض: 25-20N, خط طول: 055-31E, ارتفاع: 35 متر

مراقبة الطقس الحالي

تاريخ ووقت الإصدار 1ساعة و 54 دقيقة قبل الساعة 21:00UTC
ريح 4 عقدة من الشرق/الجنوب الشرقي
درجة الحرارة 32°درجة مئوية
الرطوبة 49%
ضغط 997 hPa
الرؤية 10 كم أو أكثر
الغيوم لا تقل 1500 م ولا وجود لمزنة ركامية السحاب الأسود

METAR: OMSJ 242100Z 12004KT CAVOK 32/20 Q0997 NOSIG

زمن: 02:54 (22:54 UTC)

توقعات

تاريخ ووقت الإصدار 5ساعات و 54 دقيقة قبل الساعة 17:00UTC
التوقعات صالحة من24 الساعة 18 UTC إلى 26 الساعة 00 UTC
ريح 5 عقدة من الجنوب/الجنوب الشرقي
الرؤية: 8000 متر
نظرية الاحتمالات 30%
من 24 الساعة 23 UTC إلى 25 الساعة 04 UTC
الرؤية: 4000 متر
العجاج
أصبح
من 25 الساعة 07 UTC إلى 25 الساعة 09 UTC
ريح 14 عقدة من الغرب/الشمال الغربي
أصبح
من 25 الساعة 15 UTC إلى 25 الساعة 17 UTC
ريح 5 عقدة من الجنوب

TAF: OMSJ 241700Z 2418/2600 16005KT 8000 NSC PROB30 2423/2504 4000 HZ BECMG 2507/2509 29014KT BECMG 2515/2517 17005KT

أرصاد الطقس والتوقعات من أكثر من 4000 مطار (تقارير الطقس للمطار METAR والتنبؤ بالطقس بالمطارTAF).

المحطات المتاحة هي النقط الصفراء والحمراء على الخريطة.

حرك المؤشر فوق النقطة لمعرفة اسم المحطة.

ثم انقر لمعرفة أرصاد وتوقعات الطقس.

لتغيير الخارطة: اضغط على الأزرار الخضراء مع رمز الصليب الأسود للتكبير. على الزر الأخضر مع شرطة للتصغير، أو على الأسهم الخضراء للخرائط المجاورة.


METAR-TAF: